Forside
METAR-TAF:

METAR-TAF

Lufthavne :

Leuchars, Skotland

Breddekreds: 56-23N, længdekreds: 002-52W, højde: 12 m

Aktuelle vejr

Denne rapport blev lavet for 1 time og 13 minutter siden, kl. 17:50 UTC
Vind 14 kt fra vestsydvest
Temperatur 4°C
Fugtighed 87%
Tryk 1004 hPa
Sigt 10 km eller mere

METAR: EGQL 021750Z AUTO 24014KT 9999 FEW100/// 04/02 Q1004

Tid: 19:03 (19:03 UTC)

Vejrudsigter

Denne rapport blev lavet for 5 timer og 36 minutter siden, kl. 13:27 UTC
Foreløbig gælder fra 02 på 15 UTC til 02 på 18 UTC
Vind 12 kt fra vestsydvest
Sigt 10 km eller mere
Nogle få skyer i en højde af 4000 ft
Midlertidig
fra 02 på 15 UTC til 02 på 18 UTC
Vind 15 kt fra vest med vindstød på up til 25 kt
Spredte skyer i en højde af 2200 ft
let regnbyger
Sandsynlighed 30% :
Midlertidig
fra 02 på 15 UTC til 02 på 18 UTC
Sigt: 4000 m
Spredte skyer i en højde af 2000 ft, Cumulonimbus.
regnbyger, sne

TAF: EGQL 021327Z 0215/0218 24012KT 9999 FEW040 TEMPO 0215/0218 26015G25KT -SHRA SCT022 PROB30 TEMPO 0215/0218 4000 SHRASN SCT020CB

Vejrobservationer og prognoser fra mere end 4000 lufthavne (METAR og TAF).

De gule og røde prikker repræsenterer de meteorologiske stationer.

Flyt musen over at se navnet på stationen.

Så klik over at se vejr observationer og prognoser.

At skifte det kort: Klik på de grønne knapper med et sort kors for at zoome ind; på den grønne knap med en bindestreg for at zoome ud; eller på de grønne pile for tilstødende kort.


METAR-TAF: